Latest Weather Observations for Melville Water

IDW60901

Issued at 5:51 am WST Friday 22 January 2021 (issued every 10 minutes, with the page automatically refreshed every 10 minutes)

About weather observations | Map of Perth area stations | Latest observations for Perth area | Other Formats
Station Details ID: 009091 Name: INNER DOLPHIN PYLON Lat: -31.99 Lon: 115.83 Height: 0.0 m
Data from the previous 72 hours. | See also: Recent months at Melville Water
Date/Time
WST
Temp
°C
App
Temp
°C
Dew
Point
°C
Rel
Hum
%
Delta-T
°C
Wind Press
QNH
hPa
Press
MSL
hPa
Rain since
9am
mm
Dir  Spd
km/h
Gust
km/h
Spd
kts
Gust
kts
22/05:30am - - - - - ESE 15 20 8 11 - - -
22/05:00am - - - - - E 17 20 9 11 - - -
22/04:30am - - - - - E 17 20 9 11 - - -
22/04:00am - - - - - E 22 28 12 15 - - -
22/03:30am - - - - - E 24 32 13 17 - - -
22/03:00am - - - - - E 20 26 11 14 - - -
22/02:30am - - - - - E 24 33 13 18 - - -
22/02:00am - - - - - E 20 26 11 14 - - -
22/01:30am - - - - - E 26 33 14 18 - - -
22/01:00am - - - - - E 26 32 14 17 - - -
22/12:30am - - - - - ESE 22 30 12 16 - - -
22/12:00am - - - - - ESE 17 24 9 13 - - -
 
Date/Time
WST
Temp
°C
App
Temp
°C
Dew
Point
°C
Rel
Hum
%
Delta-T
°C
Wind Press
QNH
hPa
Press
MSL
hPa
Rain since
9am
mm
Dir  Spd
km/h
Gust
km/h
Spd
kts
Gust
kts
21/11:30pm - - - - - SE 13 28 7 15 - - -
21/11:00pm - - - - - SE 15 20 8 11 - - -
21/10:30pm - - - - - SSE 13 17 7 9 - - -
21/10:00pm - - - - - SSE 11 15 6 8 - - -
21/09:30pm - - - - - SSW 6 13 3 7 - - -
21/09:00pm - - - - - SW 9 11 5 6 - - -
21/08:30pm - - - - - SW 11 13 6 7 - - -
21/08:00pm - - - - - SW 11 11 6 6 - - -
21/07:30pm - - - - - SSW 17 20 9 11 - - -
21/07:00pm - - - - - SSW 22 32 12 17 - - -
21/06:30pm - - - - - SW 30 39 16 21 - - -
21/06:00pm - - - - - SW 32 39 17 21 - - -
21/05:30pm - - - - - SSW 32 39 17 21 - - -
21/05:00pm - - - - - SSW 32 43 17 23 - - -
21/04:30pm - - - - - SW 33 37 18 20 - - -
21/04:00pm - - - - - SW 35 41 19 22 - - -
21/03:30pm - - - - - SW 33 41 18 22 - - -
21/03:00pm - - - - - SW 35 41 19 22 - - -
21/02:30pm - - - - - SW 35 41 19 22 - - -
21/02:00pm - - - - - SW 32 37 17 20 - - -
21/01:30pm - - - - - SW 32 35 17 19 - - -
21/01:00pm - - - - - SW 26 30 14 16 - - -
21/12:30pm - - - - - SW 24 30 13 16 - - -
21/12:00pm - - - - - SW 24 30 13 16 - - -
21/11:30am - - - - - SW 13 24 7 13 - - -
21/11:00am - - - - - S 11 19 6 10 - - -
21/10:30am - - - - - S 11 17 6 9 - - -
21/10:00am - - - - - SSE 11 17 6 9 - - -
21/09:30am - - - - - ESE 9 15 5 8 - - -
21/09:00am - - - - - SE 15 20 8 11 - - -
21/08:30am - - - - - SE 17 20 9 11 - - -
21/08:00am - - - - - SE 19 24 10 13 - - -
21/07:30am - - - - - SSE 15 20 8 11 - - -
21/07:00am - - - - - SE 19 22 10 12 - - -
21/06:30am - - - - - SE 22 28 12 15 - - -
21/06:00am - - - - - SE 20 24 11 13 - - -
21/05:30am - - - - - SE 20 28 11 15 - - -
21/05:00am - - - - - SE 15 22 8 12 - - -
21/04:30am - - - - - S 9 15 5 8 - - -
21/04:00am - - - - - SSW 11 15 6 8 - - -
21/03:30am - - - - - S 11 17 6 9 - - -
21/03:00am - - - - - SSE 15 24 8 13 - - -
21/02:30am - - - - - SE 19 22 10 12 - - -
21/02:00am - - - - - SE 15 22 8 12 - - -
21/01:30am - - - - - SE 17 20 9 11 - - -
21/01:00am - - - - - SSE 13 19 7 10 - - -
21/12:30am - - - - - S 11 15 6 8 - - -
21/12:00am - - - - - SSW 13 15 7 8 - - -
 
Date/Time
WST
Temp
°C
App
Temp
°C
Dew
Point
°C
Rel
Hum
%
Delta-T
°C
Wind Press
QNH
hPa
Press
MSL
hPa
Rain since
9am
mm
Dir  Spd
km/h
Gust
km/h
Spd
kts
Gust
kts
20/11:30pm - - - - - S 11 15 6 8 - - -
20/11:00pm - - - - - S 7 11 4 6 - - -
20/10:30pm - - - - - SSE 6 11 3 6 - - -
20/10:00pm - - - - - WSW 4 6 2 3 - - -
20/09:30pm - - - - - SW 9 11 5 6 - - -
20/09:00pm - - - - - SSW 15 19 8 10 - - -
20/08:30pm - - - - - SSW 17 20 9 11 - - -
20/08:00pm - - - - - SSW 22 28 12 15 - - -
20/07:30pm - - - - - SSW 26 32 14 17 - - -
20/07:00pm - - - - - SSW 30 39 16 21 - - -
20/06:30pm - - - - - SSW 30 37 16 20 - - -
20/06:00pm - - - - - SSW 24 32 13 17 - - -
20/05:30pm - - - - - SW 26 39 14 21 - - -
20/05:00pm - - - - - SW 28 33 15 18 - - -
20/04:30pm - - - - - SW 28 33 15 18 - - -
20/04:00pm - - - - - SSW 26 33 14 18 - - -
20/03:30pm - - - - - SW 22 28 12 15 - - -
20/03:00pm - - - - - SW 20 26 11 14 - - -
20/02:30pm - - - - - SW 22 30 12 16 - - -
20/02:00pm - - - - - SW 24 30 13 16 - - -
20/01:30pm - - - - - WSW 20 28 11 15 - - -
20/01:00pm - - - - - WSW 20 26 11 14 - - -
20/12:30pm - - - - - WSW 20 26 11 14 - - -
20/12:00pm - - - - - WSW 17 20 9 11 - - -
20/11:30am - - - - - WSW 9 15 5 8 - - -
20/11:00am - - - - - SW 9 13 5 7 - - -
20/10:30am - - - - - WSW 9 17 5 9 - - -
20/10:00am - - - - - SSW 7 17 4 9 - - -
20/09:30am - - - - - SW 6 9 3 5 - - -
20/09:00am - - - - - SW 15 20 8 11 - - -
20/08:30am - - - - - SW 19 20 10 11 - - -
20/08:00am - - - - - SSW 13 19 7 10 - - -
20/07:30am - - - - - SW 9 15 5 8 - - -
20/07:00am - - - - - SW 15 20 8 11 - - -
20/06:30am - - - - - SSW 13 15 7 8 - - -
20/06:00am - - - - - SSW 9 13 5 7 - - -
20/05:30am - - - - - SW 13 17 7 9 - - -
20/05:00am - - - - - WSW 15 22 8 12 - - -
20/04:30am - - - - - W 13 15 7 8 - - -
20/04:00am - - - - - WSW 15 19 8 10 - - -
20/03:30am - - - - - WSW 6 11 3 6 - - -
20/03:00am - - - - - WSW 4 6 2 3 - - -
20/02:30am - - - - - W 6 7 3 4 - - -
20/02:00am - - - - - SW 7 11 4 6 - - -
20/01:30am - - - - - SW 11 13 6 7 - - -
20/01:00am - - - - - SSW 13 17 7 9 - - -
20/12:30am - - - - - SSW 13 17 7 9 - - -
20/12:00am - - - - - SSW 15 20 8 11 - - -
 
Date/Time
WST
Temp
°C
App
Temp
°C
Dew
Point
°C
Rel
Hum
%
Delta-T
°C
Wind Press
QNH
hPa
Press
MSL
hPa
Rain since
9am
mm
Dir  Spd
km/h
Gust
km/h
Spd
kts
Gust
kts
19/11:30pm - - - - - SW 17 22 9 12 - - -
19/11:00pm - - - - - SW 15 20 8 11 - - -
19/10:30pm - - - - - SW 13 19 7 10 - - -
19/10:00pm - - - - - SW 15 19 8 10 - - -
19/09:30pm - - - - - SW 15 19 8 10 - - -
19/09:00pm - - - - - SW 9 15 5 8 - - -
19/08:30pm - - - - - SSW 15 20 8 11 - - -
19/08:00pm - - - - - SSW 13 19 7 10 - - -
19/07:30pm - - - - - SSW 17 22 9 12 - - -
19/07:00pm - - - - - SSW 19 22 10 12 - - -
19/06:30pm - - - - - SW 20 24 11 13 - - -
19/06:00pm - - - - - WSW 20 22 11 12 - - -
19/05:30pm - - - - - SW 17 20 9 11 - - -
19/05:00pm - - - - - WSW 17 20 9 11 - - -
19/04:30pm - - - - - SW 17 22 9 12 - - -
19/04:00pm - - - - - WSW 15 20 8 11 - - -
19/03:30pm - - - - - WSW 17 20 9 11 - - -
19/03:00pm - - - - - WSW 13 19 7 10 - - -
19/02:30pm - - - - - WSW 22 30 12 16 - - -
19/02:00pm - - - - - W 24 28 13 15 - - -
19/01:30pm - - - - - WSW 22 28 12 15 - - -
19/01:00pm - - - - - WSW 20 26 11 14 - - -
19/12:30pm - - - - - W 15 20 8 11 - - -
19/12:00pm - - - - - W 19 28 10 15 - - -
19/11:30am - - - - - W 17 22 9 12 - - -
19/11:00am - - - - - SSE 4 9 2 5 - - -
19/10:30am - - - - - SSW 11 15 6 8 - - -
19/10:00am - - - - - SSW 9 11 5 6 - - -
19/09:30am - - - - - WSW 9 11 5 6 - - -
19/09:00am - - - - - SSW 6 7 3 4 - - -
19/08:30am - - - - - SSW 7 11 4 6 - - -
19/08:00am - - - - - SSW 13 13 7 7 - - -
19/07:30am - - - - - SW 7 9 4 5 - - -
19/07:00am - - - - - WSW 7 9 4 5 - - -
19/06:30am - - - - - SW 9 11 5 6 - - -
19/06:00am - - - - - W 2 7 1 4 - - -

Latest Capital City Observations: Canberra | Sydney | Melbourne | Brisbane | Adelaide | Perth | Hobart | Darwin

Other formats

Comma delimited format used in spreadsheet applications
http://www.bom.gov.au/fwo/IDW60901/IDW60901.95620.axf

JavaScript Object Notation format (JSON) in row-major order
http://www.bom.gov.au/fwo/IDW60901/IDW60901.95620.json

Data quality

Most of these data are generated automatically and are frequently updated. Quality checks on data are not normally performed. It is possible for incorrect values to appear. Refer to information at About Latest Weather Observations and please check the disclaimer before using these data.